AAL606 KMIA-KJAX
Flight info
| Callsign | AAL606 |
|---|---|
| Flight time | 0h 56m |
| Altitude | 28000 |
| Route | FLMGO2 STYMY ORL HAINY QUBEN2 |
| Aircraft | B738/M-SDE2E3FGHIRWXY/LB1 |
Departure
| Time | 2026-05-06 01:12 |
|---|---|
| Airport | Miami International Airport (KMIA) |
Arrival
| Time | 2026-05-06 02:08 |
|---|---|
| Airport | Jacksonville International Airport (KJAX) |
| Time | Latitude | Longitude | Altitude | Speed | Heading |
|---|---|---|---|---|---|
| 2026-05-06 00:51 | 25.79785 | -80.27304 | 16 ft | 0 kts | 327° |
| 2026-05-06 01:01 | 25.79775 | -80.27297 | 16 ft | 4 kts | 333° |
| 2026-05-06 01:01 | 25.79750 | -80.27289 | 16 ft | 4 kts | 3° |
| 2026-05-06 01:02 | 25.79728 | -80.27298 | 16 ft | 4 kts | 56° |
| 2026-05-06 01:02 | 25.79722 | -80.27314 | 16 ft | 1 kts | 81° |
| 2026-05-06 01:02 | 25.79722 | -80.27317 | 16 ft | 0 kts | 81° |
| 2026-05-06 01:04 | 25.79728 | -80.27253 | 16 ft | 14 kts | 90° |
| 2026-05-06 01:04 | 25.79732 | -80.27146 | 16 ft | 13 kts | 86° |
| 2026-05-06 01:05 | 25.79784 | -80.27061 | 16 ft | 17 kts | 41° |
| 2026-05-06 01:05 | 25.79887 | -80.26985 | 16 ft | 20 kts | 21° |
| 2026-05-06 01:05 | 25.79973 | -80.27002 | 16 ft | 13 kts | 308° |
| 2026-05-06 01:05 | 25.80028 | -80.27078 | 16 ft | 12 kts | 316° |
| 2026-05-06 01:06 | 25.80081 | -80.27145 | 16 ft | 14 kts | 279° |
| 2026-05-06 01:06 | 25.80080 | -80.27254 | 16 ft | 16 kts | 267° |
| 2026-05-06 01:06 | 25.80073 | -80.27395 | 16 ft | 19 kts | 266° |
| 2026-05-06 01:06 | 25.80070 | -80.27570 | 16 ft | 23 kts | 266° |
| 2026-05-06 01:07 | 25.80061 | -80.27744 | 16 ft | 22 kts | 267° |
| 2026-05-06 01:07 | 25.80055 | -80.27911 | 16 ft | 21 kts | 268° |
| 2026-05-06 01:07 | 25.80050 | -80.28071 | 16 ft | 20 kts | 267° |
| 2026-05-06 01:07 | 25.80042 | -80.28223 | 16 ft | 19 kts | 268° |
| 2026-05-06 01:08 | 25.80040 | -80.28367 | 16 ft | 18 kts | 268° |
| 2026-05-06 01:08 | 25.80032 | -80.28505 | 16 ft | 17 kts | 266° |
| 2026-05-06 01:08 | 25.80026 | -80.28640 | 16 ft | 19 kts | 266° |
| 2026-05-06 01:08 | 25.80019 | -80.28783 | 16 ft | 18 kts | 267° |
| 2026-05-06 01:09 | 25.80012 | -80.28931 | 16 ft | 21 kts | 267° |
| 2026-05-06 01:09 | 25.80005 | -80.29088 | 16 ft | 20 kts | 267° |
| 2026-05-06 01:09 | 25.80001 | -80.29187 | 16 ft | 19 kts | 267° |
| 2026-05-06 01:09 | 25.79996 | -80.29276 | 16 ft | 4 kts | 268° |
| 2026-05-06 01:10 | 25.79994 | -80.29336 | 16 ft | 12 kts | 268° |
| 2026-05-06 01:10 | 25.79991 | -80.29437 | 16 ft | 16 kts | 266° |
| 2026-05-06 01:10 | 25.79984 | -80.29582 | 16 ft | 20 kts | 268° |
| 2026-05-06 01:10 | 25.79979 | -80.29730 | 16 ft | 19 kts | 267° |
| 2026-05-06 01:11 | 25.79973 | -80.29870 | 16 ft | 18 kts | 267° |
| 2026-05-06 01:11 | 25.79990 | -80.30013 | 16 ft | 24 kts | 285° |
| 2026-05-06 01:11 | 25.80077 | -80.30010 | 16 ft | 30 kts | 81° |
| 2026-05-06 01:11 | 25.80099 | -80.29484 | 16 ft | 104 kts | 85° |
| 2026-05-06 01:12 | 25.80142 | -80.28435 | 64 ft | 162 kts | 85° |
| 2026-05-06 01:12 | 25.80206 | -80.27108 | 643 ft | 180 kts | 84° |
| 2026-05-06 01:12 | 25.80316 | -80.25733 | 1640 ft | 174 kts | 81° |
| 2026-05-06 01:12 | 25.80413 | -80.24394 | 2573 ft | 177 kts | 81° |
| 2026-05-06 01:13 | 25.80456 | -80.22947 | 3117 ft | 199 kts | 82° |
| 2026-05-06 01:13 | 25.80497 | -80.21334 | 3487 ft | 224 kts | 83° |
| 2026-05-06 01:13 | 25.80552 | -80.19513 | 3946 ft | 246 kts | 83° |
| 2026-05-06 01:13 | 25.80950 | -80.17627 | 4556 ft | 257 kts | 61° |
| 2026-05-06 01:14 | 25.83723 | -80.15216 | 6179 ft | 267 kts | 11° |
| 2026-05-06 01:14 | 25.85579 | -80.15161 | 7059 ft | 270 kts | 353° |
| 2026-05-06 01:14 | 25.87462 | -80.15412 | 7931 ft | 275 kts | 351° |
| 2026-05-06 01:15 | 25.89370 | -80.15757 | 8777 ft | 281 kts | 346° |
| 2026-05-06 01:15 | 25.91268 | -80.16337 | 9622 ft | 285 kts | 341° |
| 2026-05-06 01:15 | 25.93166 | -80.17018 | 10486 ft | 289 kts | 340° |
| 2026-05-06 01:15 | 25.95118 | -80.17710 | 11127 ft | 302 kts | 340° |
| 2026-05-06 01:16 | 25.97183 | -80.18460 | 11495 ft | 323 kts | 337° |
| 2026-05-06 01:16 | 25.99251 | -80.19592 | 11877 ft | 338 kts | 326° |
| 2026-05-06 01:16 | 26.01163 | -80.21164 | 12529 ft | 345 kts | 318° |
| 2026-05-06 01:16 | 26.02977 | -80.22931 | 13294 ft | 348 kts | 315° |
| 2026-05-06 01:17 | 26.04763 | -80.24776 | 14069 ft | 352 kts | 315° |
| 2026-05-06 01:17 | 26.06580 | -80.26628 | 14825 ft | 356 kts | 315° |
| 2026-05-06 01:17 | 26.08425 | -80.28487 | 15558 ft | 360 kts | 315° |
| 2026-05-06 01:17 | 26.10297 | -80.30362 | 16274 ft | 364 kts | 315° |
| 2026-05-06 01:18 | 26.12164 | -80.32226 | 16961 ft | 367 kts | 315° |
| 2026-05-06 01:18 | 26.14077 | -80.34136 | 17642 ft | 371 kts | 314° |
| 2026-05-06 01:18 | 26.16008 | -80.36060 | 18299 ft | 374 kts | 314° |
| 2026-05-06 01:18 | 26.17957 | -80.38003 | 18943 ft | 378 kts | 314° |
| 2026-05-06 01:19 | 26.19922 | -80.39961 | 19592 ft | 381 kts | 314° |
| 2026-05-06 01:19 | 26.21984 | -80.41843 | 20207 ft | 387 kts | 319° |
| 2026-05-06 01:19 | 26.24254 | -80.43512 | 20802 ft | 394 kts | 325° |
| 2026-05-06 01:19 | 26.26687 | -80.44955 | 21379 ft | 399 kts | 329° |
| 2026-05-06 01:20 | 26.29215 | -80.46284 | 21918 ft | 404 kts | 330° |
| 2026-05-06 01:20 | 26.31775 | -80.47609 | 22463 ft | 407 kts | 330° |
| 2026-05-06 01:20 | 26.34348 | -80.48963 | 23015 ft | 409 kts | 330° |
| 2026-05-06 01:20 | 26.36932 | -80.50332 | 23505 ft | 413 kts | 329° |
| 2026-05-06 01:21 | 26.39534 | -80.51716 | 23999 ft | 416 kts | 329° |
| 2026-05-06 01:21 | 26.42158 | -80.53114 | 24514 ft | 418 kts | 329° |
| 2026-05-06 01:21 | 26.44745 | -80.54492 | 25135 ft | 417 kts | 329° |
| 2026-05-06 01:21 | 26.47369 | -80.55861 | 25742 ft | 418 kts | 331° |
| 2026-05-06 01:22 | 26.50104 | -80.57000 | 26367 ft | 420 kts | 336° |
| 2026-05-06 01:22 | 26.52904 | -80.57936 | 26945 ft | 421 kts | 339° |
| 2026-05-06 01:22 | 26.55729 | -80.58809 | 27502 ft | 421 kts | 339° |
| 2026-05-06 01:22 | 26.58546 | -80.59688 | 28011 ft | 422 kts | 339° |
| 2026-05-06 01:23 | 26.61389 | -80.60578 | 28130 ft | 426 kts | 339° |
| 2026-05-06 01:23 | 26.64267 | -80.61484 | 28164 ft | 435 kts | 339° |
| 2026-05-06 01:23 | 26.70213 | -80.63371 | 28176 ft | 453 kts | 339° |
| 2026-05-06 01:24 | 26.76386 | -80.65339 | 28179 ft | 469 kts | 339° |
| 2026-05-06 01:24 | 26.82727 | -80.67363 | 28181 ft | 476 kts | 339° |
| 2026-05-06 01:25 | 26.89074 | -80.69390 | 28180 ft | 473 kts | 339° |
| 2026-05-06 01:25 | 26.95372 | -80.71504 | 28181 ft | 471 kts | 336° |
| 2026-05-06 01:26 | 27.01543 | -80.73938 | 28182 ft | 470 kts | 336° |
| 2026-05-06 01:26 | 27.07699 | -80.76293 | 28183 ft | 470 kts | 336° |
| 2026-05-06 01:27 | 27.13890 | -80.78647 | 28192 ft | 470 kts | 336° |
| 2026-05-06 01:27 | 27.20083 | -80.81001 | 28199 ft | 469 kts | 337° |
| 2026-05-06 01:28 | 27.26262 | -80.83350 | 28197 ft | 469 kts | 337° |
| 2026-05-06 01:28 | 27.32446 | -80.85704 | 28198 ft | 468 kts | 337° |
| 2026-05-06 01:29 | 27.38561 | -80.88197 | 28200 ft | 467 kts | 335° |
| 2026-05-06 01:29 | 27.44659 | -80.90731 | 28205 ft | 466 kts | 335° |
| 2026-05-06 01:30 | 27.50757 | -80.93254 | 28212 ft | 466 kts | 335° |
| 2026-05-06 01:30 | 27.56806 | -80.95756 | 28218 ft | 466 kts | 336° |
| 2026-05-06 01:31 | 27.62895 | -80.98276 | 28220 ft | 466 kts | 336° |
| 2026-05-06 01:31 | 27.68983 | -81.00785 | 28225 ft | 465 kts | 336° |
| 2026-05-06 01:32 | 27.75069 | -81.03295 | 28227 ft | 465 kts | 336° |
| 2026-05-06 01:32 | 27.81148 | -81.05810 | 28230 ft | 465 kts | 336° |
| 2026-05-06 01:33 | 27.87215 | -81.08332 | 28233 ft | 464 kts | 336° |
| 2026-05-06 01:33 | 27.93272 | -81.10853 | 28236 ft | 464 kts | 336° |
| 2026-05-06 01:34 | 27.99329 | -81.13377 | 28242 ft | 464 kts | 336° |
| 2026-05-06 01:34 | 28.05358 | -81.15878 | 28250 ft | 460 kts | 337° |
| 2026-05-06 01:35 | 28.11422 | -81.18047 | 28257 ft | 460 kts | 340° |
| 2026-05-06 01:35 | 28.17468 | -81.20181 | 28265 ft | 460 kts | 339° |
| 2026-05-06 01:36 | 28.23570 | -81.22373 | 28269 ft | 460 kts | 339° |
| 2026-05-06 01:36 | 28.29665 | -81.24559 | 28267 ft | 459 kts | 339° |
| 2026-05-06 01:37 | 28.35754 | -81.26762 | 28272 ft | 459 kts | 339° |
| 2026-05-06 01:37 | 28.41843 | -81.28972 | 28271 ft | 459 kts | 339° |
| 2026-05-06 01:38 | 28.47922 | -81.31181 | 28270 ft | 459 kts | 339° |
| 2026-05-06 01:38 | 28.54081 | -81.33135 | 28270 ft | 461 kts | 346° |
| 2026-05-06 01:39 | 28.60476 | -81.33981 | 28271 ft | 464 kts | 353° |
| 2026-05-06 01:39 | 28.66935 | -81.34349 | 28273 ft | 464 kts | 354° |
| 2026-05-06 01:40 | 28.73343 | -81.34749 | 28277 ft | 464 kts | 353° |
| 2026-05-06 01:40 | 28.79785 | -81.35168 | 28278 ft | 458 kts | 353° |
| 2026-05-06 01:41 | 28.82894 | -81.35372 | 28277 ft | 439 kts | 353° |
| 2026-05-06 01:41 | 28.85892 | -81.35569 | 28275 ft | 422 kts | 353° |
| 2026-05-06 01:41 | 28.88769 | -81.35759 | 28274 ft | 406 kts | 353° |
| 2026-05-06 01:41 | 28.91542 | -81.35941 | 28261 ft | 391 kts | 353° |
| 2026-05-06 01:42 | 28.94230 | -81.36118 | 28006 ft | 384 kts | 353° |
| 2026-05-06 01:42 | 28.96881 | -81.36293 | 27655 ft | 381 kts | 353° |
| 2026-05-06 01:42 | 28.99520 | -81.36469 | 27247 ft | 379 kts | 353° |
| 2026-05-06 01:42 | 29.02113 | -81.36646 | 26845 ft | 377 kts | 353° |
| 2026-05-06 01:43 | 29.04721 | -81.36825 | 26440 ft | 375 kts | 353° |
| 2026-05-06 01:43 | 29.07321 | -81.37004 | 26035 ft | 373 kts | 353° |
| 2026-05-06 01:43 | 29.09906 | -81.37182 | 25631 ft | 371 kts | 353° |
| 2026-05-06 01:43 | 29.12478 | -81.37359 | 25229 ft | 369 kts | 353° |
| 2026-05-06 01:44 | 29.15032 | -81.37535 | 24830 ft | 367 kts | 353° |
| 2026-05-06 01:44 | 29.17575 | -81.37710 | 24431 ft | 365 kts | 353° |
| 2026-05-06 01:44 | 29.20098 | -81.37884 | 24033 ft | 363 kts | 354° |
| 2026-05-06 01:44 | 29.22615 | -81.38057 | 23634 ft | 361 kts | 354° |
| 2026-05-06 01:45 | 29.25118 | -81.38230 | 23235 ft | 359 kts | 354° |
| 2026-05-06 01:45 | 29.27602 | -81.38402 | 22839 ft | 357 kts | 354° |
| 2026-05-06 01:45 | 29.30075 | -81.38567 | 22449 ft | 355 kts | 354° |
| 2026-05-06 01:45 | 29.32529 | -81.38731 | 22061 ft | 352 kts | 354° |
| 2026-05-06 01:46 | 29.34970 | -81.38895 | 21673 ft | 350 kts | 354° |
| 2026-05-06 01:46 | 29.37394 | -81.39058 | 21288 ft | 348 kts | 354° |
| 2026-05-06 01:46 | 29.39809 | -81.39220 | 20903 ft | 346 kts | 354° |
| 2026-05-06 01:46 | 29.42205 | -81.39382 | 20521 ft | 344 kts | 353° |
| 2026-05-06 01:47 | 29.44591 | -81.39543 | 20141 ft | 342 kts | 353° |
| 2026-05-06 01:47 | 29.46922 | -81.39700 | 19768 ft | 340 kts | 353° |
| 2026-05-06 01:47 | 29.49281 | -81.39859 | 19393 ft | 338 kts | 353° |
| 2026-05-06 01:47 | 29.51619 | -81.40017 | 19019 ft | 336 kts | 353° |
| 2026-05-06 01:48 | 29.53312 | -81.40143 | 18747 ft | 333 kts | 351° |
| 2026-05-06 01:48 | 29.55528 | -81.40779 | 18379 ft | 326 kts | 334° |
| 2026-05-06 01:48 | 29.57441 | -81.42122 | 18010 ft | 321 kts | 321° |
| 2026-05-06 01:48 | 29.59101 | -81.43822 | 17625 ft | 318 kts | 314° |
| 2026-05-06 01:49 | 29.60607 | -81.45676 | 17252 ft | 317 kts | 311° |
| 2026-05-06 01:49 | 29.62101 | -81.47530 | 16882 ft | 315 kts | 313° |
| 2026-05-06 01:49 | 29.63614 | -81.49336 | 16516 ft | 313 kts | 314° |
| 2026-05-06 01:49 | 29.65132 | -81.51120 | 16185 ft | 311 kts | 314° |
| 2026-05-06 01:50 | 29.66644 | -81.52894 | 15821 ft | 309 kts | 314° |
| 2026-05-06 01:50 | 29.68146 | -81.54663 | 15444 ft | 309 kts | 314° |
| 2026-05-06 01:50 | 29.69637 | -81.56388 | 15086 ft | 307 kts | 315° |
| 2026-05-06 01:50 | 29.71163 | -81.58141 | 14730 ft | 306 kts | 315° |
| 2026-05-06 01:51 | 29.72299 | -81.59452 | 14471 ft | 304 kts | 315° |
| 2026-05-06 01:51 | 29.73794 | -81.61179 | 14094 ft | 304 kts | 315° |
| 2026-05-06 01:51 | 29.75280 | -81.62894 | 13752 ft | 302 kts | 316° |
| 2026-05-06 01:51 | 29.76949 | -81.64344 | 13386 ft | 300 kts | 332° |
| 2026-05-06 01:52 | 29.78925 | -81.65095 | 13024 ft | 299 kts | 349° |
| 2026-05-06 01:52 | 29.80986 | -81.65363 | 12698 ft | 298 kts | 355° |
| 2026-05-06 01:52 | 29.83051 | -81.65481 | 12365 ft | 296 kts | 357° |
| 2026-05-06 01:52 | 29.85100 | -81.65612 | 12038 ft | 294 kts | 356° |
| 2026-05-06 01:53 | 29.87141 | -81.65781 | 11704 ft | 293 kts | 355° |
| 2026-05-06 01:53 | 29.89178 | -81.65961 | 11295 ft | 294 kts | 355° |
| 2026-05-06 01:53 | 29.91202 | -81.66143 | 11076 ft | 289 kts | 355° |
| 2026-05-06 01:53 | 29.93194 | -81.66322 | 11019 ft | 283 kts | 355° |
| 2026-05-06 01:54 | 29.95125 | -81.66521 | 11011 ft | 273 kts | 354° |
| 2026-05-06 01:54 | 29.96970 | -81.66772 | 10982 ft | 261 kts | 353° |
| 2026-05-06 01:54 | 29.98763 | -81.67031 | 10719 ft | 259 kts | 353° |
| 2026-05-06 01:54 | 30.00543 | -81.67294 | 10444 ft | 257 kts | 353° |
| 2026-05-06 01:55 | 30.02314 | -81.67560 | 10167 ft | 256 kts | 353° |
| 2026-05-06 01:55 | 30.04069 | -81.67827 | 9892 ft | 254 kts | 353° |
| 2026-05-06 01:55 | 30.05807 | -81.68171 | 9613 ft | 253 kts | 347° |
| 2026-05-06 01:55 | 30.07441 | -81.68880 | 9299 ft | 248 kts | 336° |
| 2026-05-06 01:56 | 30.08960 | -81.69703 | 8911 ft | 240 kts | 336° |
| 2026-05-06 01:56 | 30.10438 | -81.70512 | 8579 ft | 230 kts | 336° |
| 2026-05-06 01:56 | 30.11877 | -81.71298 | 8243 ft | 222 kts | 336° |
| 2026-05-06 01:56 | 30.13234 | -81.72039 | 7917 ft | 214 kts | 337° |
| 2026-05-06 01:57 | 30.14560 | -81.72761 | 7602 ft | 207 kts | 337° |
| 2026-05-06 01:57 | 30.15836 | -81.73452 | 7318 ft | 198 kts | 337° |
| 2026-05-06 01:57 | 30.17079 | -81.74125 | 7085 ft | 196 kts | 337° |
| 2026-05-06 01:57 | 30.18315 | -81.74799 | 6809 ft | 195 kts | 337° |
| 2026-05-06 01:58 | 30.19541 | -81.75468 | 6535 ft | 194 kts | 337° |
| 2026-05-06 01:58 | 30.20759 | -81.76132 | 6265 ft | 193 kts | 337° |
| 2026-05-06 01:58 | 30.21962 | -81.76790 | 6027 ft | 190 kts | 337° |
| 2026-05-06 01:58 | 30.23148 | -81.77438 | 5781 ft | 187 kts | 337° |
| 2026-05-06 01:59 | 30.24317 | -81.78078 | 5529 ft | 185 kts | 338° |
| 2026-05-06 01:59 | 30.25476 | -81.78715 | 5281 ft | 185 kts | 338° |
| 2026-05-06 01:59 | 30.26633 | -81.79348 | 5031 ft | 183 kts | 338° |
| 2026-05-06 01:59 | 30.27784 | -81.79979 | 4778 ft | 182 kts | 338° |
| 2026-05-06 02:00 | 30.28920 | -81.80603 | 4527 ft | 180 kts | 338° |
| 2026-05-06 02:00 | 30.30042 | -81.81218 | 4281 ft | 180 kts | 338° |
| 2026-05-06 02:00 | 30.31175 | -81.81840 | 4027 ft | 178 kts | 338° |
| 2026-05-06 02:00 | 30.32279 | -81.82446 | 3780 ft | 173 kts | 338° |
| 2026-05-06 02:01 | 30.33353 | -81.83034 | 3532 ft | 170 kts | 338° |
| 2026-05-06 02:01 | 30.34418 | -81.83620 | 3271 ft | 167 kts | 338° |
| 2026-05-06 02:01 | 30.35465 | -81.84193 | 3026 ft | 166 kts | 338° |
| 2026-05-06 02:01 | 30.36512 | -81.84768 | 2775 ft | 166 kts | 339° |
| 2026-05-06 02:02 | 30.37549 | -81.85338 | 2550 ft | 166 kts | 338° |
| 2026-05-06 02:02 | 30.38591 | -81.85912 | 2291 ft | 165 kts | 338° |
| 2026-05-06 02:02 | 30.39640 | -81.86488 | 2076 ft | 165 kts | 338° |
| 2026-05-06 02:02 | 30.40671 | -81.87054 | 2012 ft | 162 kts | 338° |
| 2026-05-06 02:03 | 30.41672 | -81.87605 | 2012 ft | 161 kts | 338° |
| 2026-05-06 02:03 | 30.42693 | -81.88162 | 2022 ft | 164 kts | 339° |
| 2026-05-06 02:03 | 30.43794 | -81.88277 | 1934 ft | 161 kts | 17° |
| 2026-05-06 02:03 | 30.44521 | -81.87376 | 1937 ft | 155 kts | 62° |
| 2026-05-06 02:04 | 30.44836 | -81.86195 | 2051 ft | 154 kts | 72° |
| 2026-05-06 02:04 | 30.45115 | -81.84984 | 2070 ft | 156 kts | 71° |
| 2026-05-06 02:04 | 30.45434 | -81.83782 | 2057 ft | 156 kts | 69° |
| 2026-05-06 02:04 | 30.45780 | -81.82592 | 2048 ft | 157 kts | 68° |
| 2026-05-06 02:05 | 30.46137 | -81.81401 | 2020 ft | 155 kts | 68° |
| 2026-05-06 02:05 | 30.46485 | -81.80255 | 1878 ft | 148 kts | 67° |
| 2026-05-06 02:05 | 30.46821 | -81.79151 | 1664 ft | 143 kts | 67° |
| 2026-05-06 02:05 | 30.47144 | -81.78094 | 1492 ft | 136 kts | 67° |
| 2026-05-06 02:06 | 30.47460 | -81.77064 | 1300 ft | 136 kts | 68° |
| 2026-05-06 02:06 | 30.47776 | -81.76028 | 1118 ft | 137 kts | 68° |
| 2026-05-06 02:06 | 30.48095 | -81.74987 | 936 ft | 137 kts | 68° |
| 2026-05-06 02:06 | 30.48411 | -81.73954 | 756 ft | 136 kts | 68° |
| 2026-05-06 02:07 | 30.48727 | -81.72922 | 571 ft | 134 kts | 68° |
| 2026-05-06 02:07 | 30.49037 | -81.71909 | 400 ft | 132 kts | 67° |
| 2026-05-06 02:07 | 30.49343 | -81.70912 | 219 ft | 129 kts | 67° |
| 2026-05-06 02:07 | 30.49629 | -81.69956 | 74 ft | 120 kts | 66° |
| 2026-05-06 02:08 | 30.49902 | -81.69074 | 39 ft | 110 kts | 69° |
| 2026-05-06 02:08 | 30.50080 | -81.68496 | 38 ft | 50 kts | 69° |
| 2026-05-06 02:08 | 30.50164 | -81.68183 | 38 ft | 21 kts | 84° |
| 2026-05-06 02:08 | 30.50140 | -81.68042 | 38 ft | 16 kts | 131° |
| 2026-05-06 02:09 | 30.50058 | -81.68001 | 38 ft | 11 kts | 221° |
| 2026-05-06 02:09 | 30.50033 | -81.68077 | 38 ft | 9 kts | 251° |
| 2026-05-06 02:09 | 30.50015 | -81.68133 | 38 ft | 10 kts | 251° |
| 2026-05-06 02:09 | 30.49984 | -81.68239 | 38 ft | 14 kts | 251° |
| 2026-05-06 02:10 | 30.49950 | -81.68350 | 38 ft | 17 kts | 250° |
| 2026-05-06 02:10 | 30.49908 | -81.68435 | 38 ft | 8 kts | 205° |
| 2026-05-06 02:10 | 30.49837 | -81.68454 | 38 ft | 11 kts | 191° |
| 2026-05-06 02:10 | 30.49760 | -81.68471 | 38 ft | 11 kts | 190° |
| 2026-05-06 02:11 | 30.49686 | -81.68487 | 38 ft | 11 kts | 190° |
| 2026-05-06 02:11 | 30.49585 | -81.68509 | 38 ft | 15 kts | 196° |
| 2026-05-06 02:11 | 30.49513 | -81.68572 | 38 ft | 12 kts | 238° |
| 2026-05-06 02:11 | 30.49466 | -81.68650 | 38 ft | 11 kts | 234° |
| 2026-05-06 02:12 | 30.49418 | -81.68721 | 38 ft | 11 kts | 231° |
| 2026-05-06 02:12 | 30.49385 | -81.68801 | 38 ft | 12 kts | 256° |
| 2026-05-06 02:12 | 30.49378 | -81.68898 | 38 ft | 12 kts | 265° |
| 2026-05-06 02:12 | 30.49359 | -81.68987 | 38 ft | 11 kts | 223° |
| 2026-05-06 02:13 | 30.49274 | -81.69008 | 38 ft | 17 kts | 189° |
| 2026-05-06 02:13 | 30.49149 | -81.69033 | 38 ft | 18 kts | 188° |
| 2026-05-06 02:13 | 30.49080 | -81.68952 | 38 ft | 15 kts | 114° |
| 2026-05-06 02:13 | 30.49034 | -81.68846 | 38 ft | 14 kts | 117° |
| 2026-05-06 02:14 | 30.49005 | -81.68757 | 38 ft | 6 kts | 96° |
| 2026-05-06 02:14 | 30.49000 | -81.68706 | 38 ft | 6 kts | 98° |
| 2026-05-06 02:14 | 30.48999 | -81.68698 | 38 ft | 0 kts | 97° |